createdAt,value
2018-08-09T00:02:16.081Z,16.42
2018-08-09T00:04:43.653Z,15.68
2018-08-09T00:07:11.238Z,15.43
2018-08-09T00:09:38.816Z,14.68
2018-08-09T00:12:30.345Z,15.35
2018-08-09T00:14:57.946Z,15.10
2018-08-09T00:17:25.516Z,15.70
2018-08-09T00:19:53.082Z,16.45
2018-08-09T00:22:20.653Z,15.95
2018-08-09T00:24:48.240Z,16.48
2018-08-09T00:27:15.798Z,16.12
2018-08-09T00:29:43.364Z,16.17
2018-08-09T00:32:10.926Z,16.95
2018-08-09T00:34:38.493Z,16.25
2018-08-09T00:37:06.101Z,15.25
2018-08-09T00:39:33.653Z,15.10
2018-08-09T00:42:01.227Z,15.32
2018-08-09T00:44:28.786Z,15.48
2018-08-09T00:46:56.366Z,16.52
2018-08-09T00:49:23.926Z,16.25
2018-08-09T00:51:51.506Z,15.20
2018-08-09T00:54:19.030Z,15.32
2018-08-09T00:56:46.544Z,17.50
2018-08-09T00:59:14.083Z,16.25
2018-08-09T01:01:41.606Z,17.00
2018-08-09T01:04:09.136Z,16.90
2018-08-09T01:06:36.669Z,17.30
2018-08-09T01:09:07.829Z,16.87
2018-08-09T01:11:36.310Z,16.30
2018-08-09T01:14:04.081Z,16.00
2018-08-09T01:16:31.605Z,15.20
2018-08-09T01:19:06.065Z,16.75
2018-08-09T01:21:33.584Z,15.93
2018-08-09T01:24:01.165Z,16.07
2018-08-09T01:26:28.674Z,16.97
2018-08-09T01:28:56.219Z,16.37
2018-08-09T01:31:30.817Z,15.53
2018-08-09T01:33:58.362Z,16.42
2018-08-09T01:36:25.873Z,17.23
2018-08-09T01:38:53.601Z,17.37
2018-08-09T01:41:21.137Z,17.48
2018-08-09T01:43:57.650Z,17.62
2018-08-09T01:46:25.689Z,17.50
2018-08-09T01:48:53.868Z,18.92
2018-08-09T01:51:21.393Z,17.57
2018-08-09T01:53:49.510Z,18.35
2018-08-09T01:56:17.030Z,18.52
2018-08-09T02:01:54.495Z,17.40
2018-08-09T02:04:22.028Z,17.07
2018-08-09T02:06:49.587Z,17.62
2018-08-09T02:09:23.003Z,17.60
2018-08-09T02:11:50.534Z,17.80
2018-08-09T02:14:18.075Z,17.57
2018-08-09T02:16:45.594Z,17.20
2018-08-09T02:19:13.119Z,17.23
2018-08-09T02:21:40.627Z,17.12
2018-08-09T02:24:08.176Z,17.87
2018-08-09T02:26:35.722Z,16.80
2018-08-09T02:29:03.274Z,18.57
2018-08-09T02:31:30.803Z,16.37
2018-08-09T02:33:58.332Z,17.20
2018-08-09T02:36:25.876Z,17.92
2018-08-09T02:38:53.410Z,17.87
2018-08-09T02:41:20.950Z,18.32
2018-08-09T02:43:48.490Z,18.50
2018-08-09T02:46:16.046Z,17.62
2018-08-09T02:48:43.613Z,17.90
2018-08-09T02:51:11.158Z,18.45
2018-08-09T02:53:38.674Z,17.40
2018-08-09T02:56:06.187Z,16.90
2018-08-09T02:58:33.678Z,17.25
2018-08-09T03:01:01.185Z,17.80
2018-08-09T03:03:28.703Z,17.67
2018-08-09T03:05:56.223Z,17.20
2018-08-09T03:08:23.719Z,18.23
2018-08-09T03:10:51.230Z,17.00
2018-08-09T03:13:18.726Z,18.05
2018-08-09T03:15:46.240Z,17.73
2018-08-09T03:18:13.743Z,17.40
2018-08-09T03:20:41.239Z,18.67
2018-08-09T03:23:08.754Z,18.05
2018-08-09T03:25:36.258Z,19.20
2018-08-09T03:28:03.755Z,17.92
2018-08-09T03:30:31.264Z,18.67
2018-08-09T03:32:58.780Z,19.00
2018-08-09T03:35:26.300Z,19.52
2018-08-09T03:37:53.840Z,19.27
2018-08-09T03:40:21.331Z,19.15
2018-08-09T03:42:48.839Z,17.55
2018-08-09T03:45:16.340Z,18.75
2018-08-09T03:47:43.843Z,19.12
2018-08-09T03:50:11.351Z,18.77
2018-08-09T03:52:38.854Z,19.12
2018-08-09T03:55:06.361Z,18.87
2018-08-09T03:57:33.871Z,19.50
2018-08-09T04:00:01.371Z,19.30
2018-08-09T04:02:28.882Z,20.25
2018-08-09T04:04:56.382Z,19.07
2018-08-09T04:07:23.917Z,20.27
2018-08-09T04:09:51.410Z,19.02
2018-08-09T04:12:19.208Z,17.77
2018-08-09T04:14:46.722Z,18.07
2018-08-09T04:17:21.735Z,17.65
2018-08-09T04:19:50.571Z,18.17
2018-08-09T04:22:18.755Z,18.00
2018-08-09T04:24:46.826Z,18.25
2018-08-09T04:27:14.344Z,18.70
2018-08-09T04:29:41.867Z,18.32
2018-08-09T04:32:09.422Z,17.82
2018-08-09T04:34:36.918Z,18.40
2018-08-09T04:37:04.822Z,18.87
2018-08-09T04:39:32.318Z,18.15
2018-08-09T04:41:59.827Z,18.92
2018-08-09T04:44:27.508Z,19.37
2018-08-09T04:46:55.048Z,16.48
2018-08-09T04:49:22.555Z,16.30
2018-08-09T04:51:50.043Z,17.00
2018-08-09T04:54:17.578Z,17.45
2018-08-09T04:56:45.103Z,17.32
2018-08-09T04:59:12.622Z,16.60
2018-08-09T05:01:40.147Z,16.90
2018-08-09T05:04:07.689Z,16.70
2018-08-09T05:06:35.219Z,15.83
2018-08-09T05:09:04.911Z,14.75
2018-08-09T05:11:32.444Z,15.35
2018-08-09T05:13:59.962Z,15.25
2018-08-09T05:16:27.495Z,15.38
2018-08-09T05:18:55.033Z,15.18
2018-08-09T05:21:22.554Z,15.40
2018-08-09T05:23:50.075Z,14.05
2018-08-09T05:26:29.323Z,13.55
2018-08-09T05:28:56.943Z,13.03
2018-08-09T05:31:24.476Z,13.88
2018-08-09T05:33:52.034Z,11.97
2018-08-09T05:36:19.562Z,12.55
2018-08-09T05:38:47.136Z,11.78
2018-08-09T05:41:14.698Z,11.33
2018-08-09T05:43:42.250Z,12.40
2018-08-09T05:46:09.808Z,11.88
2018-08-09T05:48:37.348Z,12.00
2018-08-09T05:51:05.055Z,12.68
2018-08-09T05:53:32.636Z,12.50
2018-08-09T05:56:00.178Z,12.50
2018-08-09T05:58:27.716Z,12.88
2018-08-09T06:00:55.255Z,11.25
2018-08-09T06:03:22.838Z,12.50
2018-08-09T06:05:50.414Z,12.68
2018-08-09T06:08:17.916Z,12.98
2018-08-09T06:10:45.438Z,12.35
2018-08-09T06:13:13.089Z,13.08
2018-08-09T06:15:40.751Z,12.58
2018-08-09T06:18:08.288Z,12.35
2018-08-09T06:20:35.851Z,13.50
2018-08-09T06:23:03.387Z,13.55
2018-08-09T06:25:30.914Z,12.35
2018-08-09T06:27:58.446Z,12.37
2018-08-09T06:30:25.996Z,13.70
2018-08-09T06:32:53.511Z,12.50
2018-08-09T06:35:21.046Z,12.60
2018-08-09T06:37:48.588Z,13.32
2018-08-09T06:40:16.122Z,13.93
2018-08-09T06:42:44.207Z,13.10
2018-08-09T06:45:11.886Z,13.93
2018-08-09T06:47:39.476Z,13.62
2018-08-09T06:50:08.136Z,13.00
2018-08-09T06:52:35.878Z,13.70
2018-08-09T06:55:03.804Z,12.68
2018-08-09T06:57:31.322Z,12.82
2018-08-09T06:59:58.869Z,13.28
2018-08-09T07:02:26.415Z,12.70
2018-08-09T07:04:53.959Z,14.05
2018-08-09T07:07:21.559Z,14.38
2018-08-09T07:09:49.095Z,13.22
2018-08-09T07:12:16.622Z,13.98
2018-08-09T07:14:44.154Z,17.45
2018-08-09T07:17:11.686Z,16.87
2018-08-09T07:19:39.210Z,14.00
2018-08-09T07:22:06.769Z,14.25
2018-08-09T07:24:34.322Z,13.85
2018-08-09T07:27:01.893Z,14.90
2018-08-09T07:29:29.430Z,13.80
2018-08-09T07:31:56.971Z,14.28
2018-08-09T07:34:24.505Z,12.88
2018-08-09T07:36:52.035Z,12.88
2018-08-09T07:39:19.593Z,13.32
2018-08-09T07:41:47.123Z,12.58
2018-08-09T07:44:14.642Z,13.10
2018-08-09T07:46:42.170Z,13.22
2018-08-09T07:49:09.686Z,14.00
2018-08-09T07:51:37.219Z,12.93
2018-08-09T07:54:04.757Z,12.55
2018-08-09T07:56:32.292Z,13.00
2018-08-09T07:58:59.814Z,12.00
2018-08-09T08:01:27.352Z,12.53
2018-08-09T08:03:54.863Z,13.20
2018-08-09T08:06:22.402Z,12.10
2018-08-09T08:08:49.927Z,11.63
2018-08-09T08:11:17.480Z,13.55
2018-08-09T08:13:44.999Z,12.00
2018-08-09T08:16:12.535Z,12.40
2018-08-09T08:18:40.077Z,12.05
2018-08-09T08:21:07.613Z,12.55
2018-08-09T08:23:35.126Z,11.93
2018-08-09T08:26:02.666Z,11.45
2018-08-09T08:28:30.195Z,11.43
2018-08-09T08:30:57.715Z,10.98
2018-08-09T08:33:25.248Z,10.78
2018-08-09T08:35:52.758Z,10.05
2018-08-09T08:38:20.338Z,10.00
2018-08-09T08:40:47.854Z,9.53
2018-08-09T08:43:15.403Z,9.38
2018-08-09T08:45:42.931Z,8.95
2018-08-09T08:48:10.468Z,8.73
2018-08-09T08:50:38.000Z,9.10
2018-08-09T08:53:05.590Z,8.73
2018-08-09T08:55:33.104Z,8.43
2018-08-09T08:58:00.642Z,8.60
2018-08-09T09:00:28.190Z,8.33
2018-08-09T09:02:55.751Z,8.35
2018-08-09T09:05:23.287Z,8.48
2018-08-09T09:07:50.837Z,8.10
2018-08-09T09:10:18.360Z,7.83
2018-08-09T09:12:45.915Z,7.78
2018-08-09T09:15:14.574Z,7.97
2018-08-09T09:17:42.865Z,8.18
2018-08-09T09:20:15.633Z,8.98
2018-08-09T09:22:43.603Z,8.60
2018-08-09T09:25:11.471Z,8.50
2018-08-09T09:27:39.015Z,8.03
2018-08-09T09:30:10.167Z,8.18
2018-08-09T09:32:37.692Z,8.68
2018-08-09T09:35:05.617Z,8.60
2018-08-09T09:37:33.187Z,8.50
2018-08-09T09:40:00.809Z,8.55
2018-08-09T09:42:28.330Z,7.75
2018-08-09T09:44:55.866Z,7.50
2018-08-09T09:47:23.402Z,7.62
2018-08-09T09:49:50.983Z,8.20
2018-08-09T09:52:18.502Z,6.90
2018-08-09T09:54:46.039Z,7.40
2018-08-09T09:57:13.545Z,7.67
2018-08-09T09:59:41.057Z,7.60
2018-08-09T10:02:08.576Z,6.92
2018-08-09T10:04:36.090Z,7.03
2018-08-09T10:07:03.662Z,6.50
2018-08-09T10:09:31.144Z,6.20
2018-08-09T10:11:58.634Z,5.80
2018-08-09T10:14:26.146Z,5.95
2018-08-09T10:16:53.642Z,6.10
2018-08-09T10:19:21.154Z,6.40
2018-08-09T10:21:48.646Z,6.58
2018-08-09T10:24:16.147Z,6.92
2018-08-09T10:26:43.642Z,7.12
2018-08-09T10:29:11.171Z,6.58
2018-08-09T10:31:38.743Z,6.70
2018-08-09T10:34:06.281Z,7.10
2018-08-09T10:36:33.867Z,6.67
2018-08-09T10:39:01.378Z,6.70
2018-08-09T10:41:28.874Z,6.50
2018-08-09T10:43:56.366Z,6.37
2018-08-09T10:46:23.891Z,6.08
2018-08-09T10:48:51.458Z,6.85
2018-08-09T10:51:18.988Z,6.72
2018-08-09T10:53:46.523Z,6.53
2018-08-09T10:56:14.071Z,6.30
2018-08-09T10:58:41.654Z,6.75
2018-08-09T11:01:09.199Z,6.03
2018-08-09T11:03:36.722Z,6.55
2018-08-09T11:06:04.262Z,6.78
2018-08-09T11:08:31.781Z,5.80
2018-08-09T11:11:03.964Z,5.85
2018-08-09T11:13:31.493Z,5.60
2018-08-09T11:15:59.029Z,6.03
2018-08-09T11:18:26.550Z,5.83
2018-08-09T11:20:54.092Z,5.95
2018-08-09T11:23:21.619Z,5.92
2018-08-09T11:25:49.165Z,6.00
2018-08-09T11:28:16.678Z,5.97
2018-08-09T11:30:44.207Z,6.08
2018-08-09T11:33:11.729Z,6.00
2018-08-09T11:35:39.263Z,6.30
2018-08-09T11:38:06.779Z,5.90
2018-08-09T11:40:34.306Z,5.80
2018-08-09T11:43:01.848Z,5.20
2018-08-09T11:45:29.388Z,5.58
2018-08-09T11:47:56.914Z,5.47
2018-08-09T11:50:24.434Z,5.92
2018-08-09T11:52:51.964Z,5.33
2018-08-09T11:55:19.482Z,5.80
2018-08-09T11:57:46.978Z,5.80
2018-08-09T12:00:14.501Z,5.17
2018-08-09T12:02:41.994Z,5.80
2018-08-09T12:05:09.520Z,5.60
2018-08-09T12:07:37.036Z,5.85
2018-08-09T12:10:04.614Z,5.75
2018-08-09T12:12:32.131Z,5.78
2018-08-09T12:14:59.688Z,5.95
2018-08-09T12:17:27.219Z,6.35
2018-08-09T12:19:54.751Z,6.08
2018-08-09T12:22:22.258Z,6.35
2018-08-09T12:24:49.771Z,6.37
2018-08-09T12:27:17.312Z,6.55
2018-08-09T12:29:44.814Z,6.12
2018-08-09T12:32:12.323Z,6.37
2018-08-09T12:34:39.868Z,6.22
2018-08-09T12:37:07.424Z,6.40
2018-08-09T12:39:34.941Z,6.67
2018-08-09T12:42:02.488Z,6.20
2018-08-09T12:44:30.072Z,6.60
2018-08-09T12:46:57.610Z,6.70
2018-08-09T12:49:25.346Z,6.37
2018-08-09T12:51:52.901Z,6.35
2018-08-09T12:54:20.449Z,6.47
2018-08-09T12:56:47.978Z,6.78
2018-08-09T12:59:15.489Z,6.55
2018-08-09T13:01:43.000Z,6.33
2018-08-09T13:04:10.535Z,6.72
2018-08-09T13:06:38.034Z,6.50
2018-08-09T13:09:08.654Z,6.17
2018-08-09T13:11:36.175Z,6.87
2018-08-09T13:14:04.436Z,6.83
2018-08-09T13:16:31.953Z,6.72
2018-08-09T13:18:59.467Z,6.60
2018-08-09T13:21:26.993Z,6.87
2018-08-09T13:23:54.516Z,7.30
2018-08-09T13:26:22.024Z,7.00
2018-08-09T13:28:49.556Z,7.40
2018-08-09T13:31:17.087Z,7.55
2018-08-09T13:33:44.648Z,7.35
2018-08-09T13:36:12.150Z,7.97
2018-08-09T13:38:39.655Z,7.75
2018-08-09T13:41:07.163Z,7.70
2018-08-09T13:43:34.676Z,8.28
2018-08-09T13:46:02.204Z,7.75
2018-08-09T13:48:29.746Z,8.03
2018-08-09T13:50:57.275Z,7.97
2018-08-09T13:53:24.793Z,7.95
2018-08-09T13:55:52.424Z,8.08
2018-08-09T13:58:19.996Z,7.67
2018-08-09T14:00:47.546Z,7.60
2018-08-09T14:03:15.096Z,7.97
2018-08-09T14:05:42.647Z,8.80
2018-08-09T14:08:10.224Z,8.05
2018-08-09T14:10:37.751Z,7.22
2018-08-09T14:13:08.747Z,7.53
2018-08-09T14:15:36.291Z,7.15
2018-08-09T14:18:03.851Z,7.45
2018-08-09T14:20:31.379Z,7.40
2018-08-09T14:22:58.921Z,7.33
2018-08-09T14:25:28.503Z,7.33
2018-08-09T14:27:56.059Z,7.08
2018-08-09T14:30:40.766Z,7.62
2018-08-09T14:33:08.320Z,7.75
2018-08-09T14:35:35.834Z,6.95
2018-08-09T14:38:03.385Z,7.00
2018-08-09T14:41:01.111Z,6.83
2018-08-09T14:43:28.677Z,6.72
2018-08-09T14:45:56.238Z,6.60
2018-08-09T14:48:28.787Z,6.78
2018-08-09T14:50:56.337Z,6.62
2018-08-09T14:53:29.035Z,7.03
2018-08-09T14:55:56.587Z,7.42
2018-08-09T14:58:24.180Z,6.97
2018-08-09T15:00:51.719Z,6.58
2018-08-09T15:03:19.275Z,7.10
2018-08-09T15:08:54.129Z,6.58
2018-08-09T15:11:21.688Z,7.03
2018-08-09T15:16:53.451Z,7.40
2018-08-09T15:19:21.001Z,7.12
2018-08-09T15:21:48.542Z,6.85
2018-08-09T15:27:32.289Z,7.47
2018-08-09T15:29:59.827Z,7.65
2018-08-09T15:32:27.367Z,7.17
2018-08-09T15:34:54.910Z,7.30
2018-08-09T15:37:22.455Z,6.92
2018-08-09T15:40:05.350Z,6.95
2018-08-09T15:42:32.896Z,7.33
2018-08-09T15:45:00.423Z,7.47
2018-08-09T15:47:28.034Z,7.30
2018-08-09T15:49:55.514Z,7.05
2018-08-09T15:52:23.044Z,6.85
2018-08-09T15:54:50.570Z,7.33
2018-08-09T15:57:18.140Z,6.90
2018-08-09T15:59:45.631Z,6.60
2018-08-09T16:02:13.162Z,7.20
2018-08-09T16:04:40.701Z,7.20
2018-08-09T16:07:08.213Z,7.03
2018-08-09T16:09:35.710Z,7.08
2018-08-09T16:12:03.264Z,7.12
2018-08-09T16:14:30.775Z,7.03
2018-08-09T16:16:58.303Z,7.10
2018-08-09T16:19:25.811Z,6.75
2018-08-09T16:21:53.333Z,6.97
2018-08-09T16:24:20.862Z,6.92
2018-08-09T16:26:48.393Z,7.08
2018-08-09T16:29:15.917Z,7.45
2018-08-09T16:31:43.429Z,7.40
2018-08-09T16:34:10.942Z,7.20
2018-08-09T16:36:38.469Z,6.62
2018-08-09T16:39:10.298Z,7.47
2018-08-09T16:41:37.815Z,7.17
2018-08-09T16:44:05.367Z,7.10
2018-08-09T16:46:32.878Z,7.40
2018-08-09T16:49:00.409Z,7.50
2018-08-09T16:51:27.937Z,7.17
2018-08-09T16:53:55.547Z,7.15
2018-08-09T16:56:23.111Z,7.05
2018-08-09T16:58:50.672Z,7.40
2018-08-09T17:01:18.202Z,8.05
2018-08-09T17:03:45.742Z,6.87
2018-08-09T17:06:13.282Z,7.45
2018-08-09T17:08:40.831Z,7.50
2018-08-09T17:11:08.359Z,7.75
2018-08-09T17:13:35.911Z,7.78
2018-08-09T17:16:03.500Z,7.83
2018-08-09T17:18:31.095Z,7.17
2018-08-09T17:20:58.660Z,7.78
2018-08-09T17:23:26.234Z,7.55
2018-08-09T17:25:53.785Z,7.08
2018-08-09T17:28:21.330Z,7.10
2018-08-09T17:30:48.904Z,7.70
2018-08-09T17:33:16.442Z,7.47
2018-08-09T17:35:43.980Z,7.87
2018-08-09T17:38:11.519Z,7.10
2018-08-09T17:40:39.060Z,7.37
2018-08-09T17:43:06.592Z,7.12
2018-08-09T17:45:34.904Z,7.97
2018-08-09T17:48:02.989Z,7.90
2018-08-09T17:50:30.555Z,7.42
2018-08-09T17:53:00.064Z,7.58
2018-08-09T17:55:27.618Z,6.97
2018-08-09T17:57:55.135Z,7.05
2018-08-09T18:00:24.767Z,7.37
2018-08-09T18:02:52.640Z,7.53
2018-08-09T18:05:20.175Z,7.55
2018-08-09T18:07:47.763Z,7.92
2018-08-09T18:10:18.133Z,7.60
2018-08-09T18:12:46.242Z,7.40
2018-08-09T18:15:13.874Z,7.62
2018-08-09T18:17:41.429Z,7.05
2018-08-09T18:20:12.859Z,7.80
2018-08-09T18:22:40.783Z,7.90
2018-08-09T18:25:09.696Z,7.17
2018-08-09T18:27:37.319Z,7.67
2018-08-09T18:30:08.659Z,7.78
2018-08-09T18:32:36.396Z,7.28
2018-08-09T18:35:04.843Z,7.45
2018-08-09T18:37:32.361Z,7.58
2018-08-09T18:39:59.898Z,7.30
2018-08-09T18:42:27.417Z,7.47
2018-08-09T18:44:54.939Z,7.17
2018-08-09T18:47:22.462Z,8.08
2018-08-09T18:49:49.971Z,8.58
2018-08-09T18:52:17.471Z,8.80
2018-08-09T18:54:45.017Z,7.97
2018-08-09T18:57:12.543Z,8.30
2018-08-09T18:59:40.087Z,8.15
2018-08-09T19:02:07.631Z,8.68
2018-08-09T19:04:35.183Z,8.50
2018-08-09T19:07:02.712Z,8.28
2018-08-09T19:09:30.247Z,8.98
2018-08-09T19:12:00.075Z,8.65
2018-08-09T19:14:28.623Z,8.30
2018-08-09T19:16:56.319Z,9.08
2018-08-09T19:19:23.851Z,8.88
2018-08-09T19:21:51.411Z,9.05
2018-08-09T19:24:18.979Z,9.38
2018-08-09T19:26:46.606Z,9.75
2018-08-09T19:29:14.371Z,9.20
2018-08-09T19:31:42.256Z,9.08
2018-08-09T19:34:10.082Z,9.70
2018-08-09T19:36:37.956Z,10.03
2018-08-09T19:39:10.718Z,9.95
2018-08-09T19:41:38.889Z,9.55
2018-08-09T19:44:06.811Z,9.85
2018-08-09T19:46:35.042Z,9.78
2018-08-09T19:49:02.966Z,9.18
2018-08-09T19:51:30.840Z,7.90
2018-08-09T19:53:58.937Z,6.67
2018-08-09T19:56:27.255Z,6.15
2018-08-09T19:58:55.089Z,5.28
2018-08-09T20:01:23.138Z,5.50
2018-08-09T20:03:51.049Z,4.55
2018-08-09T20:06:18.869Z,4.15
2018-08-09T20:08:46.714Z,3.98
2018-08-09T20:11:14.477Z,5.05
2018-08-09T20:13:42.328Z,3.98
2018-08-09T20:16:10.207Z,4.33
2018-08-09T20:18:38.100Z,4.45
2018-08-09T20:21:06.332Z,4.22
2018-08-09T20:23:34.270Z,3.77
2018-08-09T20:26:02.272Z,4.15
2018-08-09T20:28:30.135Z,3.80
2018-08-09T20:30:57.989Z,3.77
2018-08-09T20:33:25.776Z,3.83
2018-08-09T20:35:53.626Z,3.90
2018-08-09T20:38:21.459Z,4.15
2018-08-09T20:40:49.336Z,3.80
2018-08-09T20:43:17.244Z,3.55
2018-08-09T20:45:45.181Z,4.12
2018-08-09T20:48:13.020Z,3.70
2018-08-09T20:50:40.894Z,7.30
2018-08-09T20:53:08.748Z,3.58
2018-08-09T20:55:36.531Z,3.60
2018-08-09T20:58:04.619Z,3.42
2018-08-09T21:00:33.615Z,3.90
2018-08-09T21:03:01.918Z,3.72
2018-08-09T21:05:34.338Z,4.00
2018-08-09T21:08:02.148Z,4.10
2018-08-09T21:10:30.355Z,3.58
2018-08-09T21:12:58.455Z,4.03
2018-08-09T21:15:26.420Z,3.67
2018-08-09T21:17:54.248Z,3.80
2018-08-09T21:20:22.112Z,3.80
2018-08-09T21:22:50.433Z,3.70
2018-08-09T21:25:18.506Z,3.87
2018-08-09T21:27:46.819Z,3.95
2018-08-09T21:30:18.723Z,4.05
2018-08-09T21:32:47.033Z,3.87
2018-08-09T21:35:14.913Z,4.08
2018-08-09T21:37:43.209Z,3.87
2018-08-09T21:40:11.944Z,4.80
2018-08-09T21:42:39.757Z,4.58
2018-08-09T21:45:10.636Z,4.75
2018-08-09T21:47:38.479Z,4.42
2018-08-09T21:50:09.420Z,4.40
2018-08-09T21:52:37.473Z,4.53
2018-08-09T21:55:06.070Z,4.25
2018-08-09T21:57:34.235Z,4.67
2018-08-09T22:03:09.640Z,4.45
2018-08-09T22:05:43.129Z,4.50
2018-08-09T22:08:16.665Z,4.00
2018-08-09T22:10:50.248Z,4.28
2018-08-09T22:14:21.657Z,4.17
2018-08-09T22:20:14.409Z,4.20
2018-08-09T22:22:42.392Z,4.25
2018-08-09T22:25:10.304Z,5.22
2018-08-09T22:27:38.171Z,4.62
2018-08-09T22:30:08.275Z,4.62
2018-08-09T22:32:36.253Z,4.83
2018-08-09T22:35:05.124Z,4.53
2018-08-09T22:37:32.984Z,4.83
2018-08-09T22:40:00.847Z,4.70
2018-08-09T22:42:28.667Z,4.62
2018-08-09T22:44:56.520Z,5.15
2018-08-09T22:47:24.384Z,4.58
2018-08-09T22:50:24.035Z,4.58
2018-08-09T22:52:51.954Z,4.60
2018-08-09T22:55:19.872Z,4.70
2018-08-09T22:57:47.815Z,4.78
2018-08-09T23:00:21.451Z,4.85
2018-08-09T23:02:49.387Z,4.70
2018-08-09T23:05:17.330Z,4.67
2018-08-09T23:07:45.188Z,4.00
2018-08-09T23:10:13.118Z,4.60
2018-08-09T23:12:41.260Z,4.60
2018-08-09T23:15:09.540Z,3.87
2018-08-09T23:17:37.349Z,4.10
2018-08-09T23:20:06.332Z,4.53
2018-08-09T23:22:34.224Z,3.50
2018-08-09T23:25:02.161Z,3.95
2018-08-09T23:27:30.031Z,3.70
2018-08-09T23:29:57.853Z,3.87
2018-08-09T23:32:25.747Z,3.92
2018-08-09T23:34:53.645Z,3.70
2018-08-09T23:37:21.468Z,3.37
2018-08-09T23:39:49.344Z,3.52
2018-08-09T23:42:17.255Z,3.52
2018-08-09T23:44:45.111Z,3.25
2018-08-09T23:47:12.990Z,3.40
2018-08-09T23:49:40.836Z,3.20
2018-08-09T23:52:08.733Z,3.45
2018-08-09T23:55:12.271Z,3.30
2018-08-09T23:57:40.205Z,3.30
